sensor_id;sensor_type;location;lat;lon;timestamp;P1;P2;P0
73917;PMS5003;63639;52.280;5.162;2022-12-07T00:01:17;19;19;
73917;PMS5003;63639;52.280;5.162;2022-12-07T00:03:46;19;19;
73917;PMS5003;63639;52.280;5.162;2022-12-07T00:06:15;17;16;
73917;PMS5003;63639;52.280;5.162;2022-12-07T00:08:43;13;13;
73917;PMS5003;63639;52.280;5.162;2022-12-07T00:11:12;16;12;
73917;PMS5003;63639;52.280;5.162;2022-12-07T00:13:41;16;13;
73917;PMS5003;63639;52.280;5.162;2022-12-07T00:16:09;15;13;
73917;PMS5003;63639;52.280;5.162;2022-12-07T00:18:38;9;9;
73917;PMS5003;63639;52.280;5.162;2022-12-07T00:21:06;13;11;
73917;PMS5003;63639;52.280;5.162;2022-12-07T00:23:36;13;11;
73917;PMS5003;63639;52.280;5.162;2022-12-07T00:26:04;13;11;
73917;PMS5003;63639;52.280;5.162;2022-12-07T00:28:32;12;11;
73917;PMS5003;63639;52.280;5.162;2022-12-07T00:31:00;13;13;
73917;PMS5003;63639;52.280;5.162;2022-12-07T00:33:27;6;6;
73917;PMS5003;63639;52.280;5.162;2022-12-07T00:35:54;9;8;
73917;PMS5003;63639;52.280;5.162;2022-12-07T00:38:22;13;9;
73917;PMS5003;63639;52.280;5.162;2022-12-07T00:40:53;8;8;
73917;PMS5003;63639;52.280;5.162;2022-12-07T00:43:21;9;5;
73917;PMS5003;63639;52.280;5.162;2022-12-07T00:45:48;10;8;
73917;PMS5003;63639;52.280;5.162;2022-12-07T00:48:15;8;6;
73917;PMS5003;63639;52.280;5.162;2022-12-07T00:50:41;8;6;
73917;PMS5003;63639;52.280;5.162;2022-12-07T00:53:08;6;6;
73917;PMS5003;63639;52.280;5.162;2022-12-07T00:55:36;6;6;
73917;PMS5003;63639;52.280;5.162;2022-12-07T00:58:03;5;5;
73917;PMS5003;63639;52.280;5.162;2022-12-07T01:00:30;6;5;
73917;PMS5003;63639;52.280;5.162;2022-12-07T01:02:57;9;8;
73917;PMS5003;63639;52.280;5.162;2022-12-07T01:05:24;8;8;
73917;PMS5003;63639;52.280;5.162;2022-12-07T01:07:51;12;10;
73917;PMS5003;63639;52.280;5.162;2022-12-07T01:10:18;11;9;
73917;PMS5003;63639;52.280;5.162;2022-12-07T01:12:45;10;9;
73917;PMS5003;63639;52.280;5.162;2022-12-07T01:15:11;5;5;
73917;PMS5003;63639;52.280;5.162;2022-12-07T01:17:38;3;3;
73917;PMS5003;63639;52.280;5.162;2022-12-07T01:20:06;5;3;
73917;PMS5003;63639;52.280;5.162;2022-12-07T01:22:35;5;4;
73917;PMS5003;63639;52.280;5.162;2022-12-07T01:25:03;18;18;
73917;PMS5003;63639;52.280;5.162;2022-12-07T01:27:31;29;26;
73917;PMS5003;63639;52.280;5.162;2022-12-07T01:29:59;26;24;
73917;PMS5003;63639;52.280;5.162;2022-12-07T01:32:26;22;19;
73917;PMS5003;63639;52.280;5.162;2022-12-07T01:34:53;25;16;
73917;PMS5003;63639;52.280;5.162;2022-12-07T01:37:20;10;10;
73917;PMS5003;63639;52.280;5.162;2022-12-07T01:39:48;3;2;
73917;PMS5003;63639;52.280;5.162;2022-12-07T01:42:15;3;3;
73917;PMS5003;63639;52.280;5.162;2022-12-07T01:45:48;5;3;
73917;PMS5003;63639;52.280;5.162;2022-12-07T01:48:15;5;2;
73917;PMS5003;63639;52.280;5.162;2022-12-07T01:50:46;3;3;
73917;PMS5003;63639;52.280;5.162;2022-12-07T01:53:16;1;1;
73917;PMS5003;63639;52.280;5.162;2022-12-07T01:55:45;3;3;
73917;PMS5003;63639;52.280;5.162;2022-12-07T01:58:15;2;2;
73917;PMS5003;63639;52.280;5.162;2022-12-07T02:02:00;3;3;
73917;PMS5003;63639;52.280;5.162;2022-12-07T02:04:30;3;2;
73917;PMS5003;63639;52.280;5.162;2022-12-07T02:06:57;3;3;
73917;PMS5003;63639;52.280;5.162;2022-12-07T02:09:24;3;2;
73917;PMS5003;63639;52.280;5.162;2022-12-07T02:11:51;1;1;
73917;PMS5003;63639;52.280;5.162;2022-12-07T02:14:20;3;2;
73917;PMS5003;63639;52.280;5.162;2022-12-07T02:16:49;3;3;
73917;PMS5003;63639;52.280;5.162;2022-12-07T02:19:30;1;1;
73917;PMS5003;63639;52.280;5.162;2022-12-07T02:22:37;1;1;
73917;PMS5003;63639;52.280;5.162;2022-12-07T02:25:21;1;1;
73917;PMS5003;63639;52.280;5.162;2022-12-07T02:27:58;2;2;
73917;PMS5003;63639;52.280;5.162;2022-12-07T02:30:31;2;2;
73917;PMS5003;63639;52.280;5.162;2022-12-07T02:33:03;1;1;
73917;PMS5003;63639;52.280;5.162;2022-12-07T02:35:34;2;2;
73917;PMS5003;63639;52.280;5.162;2022-12-07T02:38:08;1;1;
73917;PMS5003;63639;52.280;5.162;2022-12-07T02:40:41;1;1;
73917;PMS5003;63639;52.280;5.162;2022-12-07T02:43:14;1;1;
73917;PMS5003;63639;52.280;5.162;2022-12-07T02:45:46;2;1;
73917;PMS5003;63639;52.280;5.162;2022-12-07T02:48:14;2;2;
73917;PMS5003;63639;52.280;5.162;2022-12-07T02:50:44;1;1;
73917;PMS5003;63639;52.280;5.162;2022-12-07T02:53:27;2;0;
73917;PMS5003;63639;52.280;5.162;2022-12-07T02:55:55;1;1;
73917;PMS5003;63639;52.280;5.162;2022-12-07T02:58:24;1;1;
73917;PMS5003;63639;52.280;5.162;2022-12-07T03:01:02;3;2;
73917;PMS5003;63639;52.280;5.162;2022-12-07T03:03:37;1;1;
73917;PMS5003;63639;52.280;5.162;2022-12-07T03:06:11;2;1;
73917;PMS5003;63639;52.280;5.162;2022-12-07T03:08:48;2;2;
73917;PMS5003;63639;52.280;5.162;2022-12-07T03:11:23;2;2;
73917;PMS5003;63639;52.280;5.162;2022-12-07T03:13:58;3;3;
73917;PMS5003;63639;52.280;5.162;2022-12-07T03:16:29;4;2;
73917;PMS5003;63639;52.280;5.162;2022-12-07T03:19:02;4;4;
73917;PMS5003;63639;52.280;5.162;2022-12-07T03:21:34;3;3;
73917;PMS5003;63639;52.280;5.162;2022-12-07T03:24:06;3;2;
73917;PMS5003;63639;52.280;5.162;2022-12-07T03:26:36;3;3;
73917;PMS5003;63639;52.280;5.162;2022-12-07T03:29:07;3;3;
73917;PMS5003;63639;52.280;5.162;2022-12-07T03:31:39;2;2;
73917;PMS5003;63639;52.280;5.162;2022-12-07T03:34:11;2;2;
73917;PMS5003;63639;52.280;5.162;2022-12-07T03:36:45;4;2;
73917;PMS5003;63639;52.280;5.162;2022-12-07T03:39:17;3;3;
73917;PMS5003;63639;52.280;5.162;2022-12-07T03:41:51;2;2;
73917;PMS5003;63639;52.280;5.162;2022-12-07T03:44:19;3;3;
73917;PMS5003;63639;52.280;5.162;2022-12-07T03:46:49;3;2;
73917;PMS5003;63639;52.280;5.162;2022-12-07T03:49:22;1;1;
73917;PMS5003;63639;52.280;5.162;2022-12-07T03:51:53;1;1;
73917;PMS5003;63639;52.280;5.162;2022-12-07T03:54:26;2;2;
73917;PMS5003;63639;52.280;5.162;2022-12-07T03:56:57;3;1;
73917;PMS5003;63639;52.280;5.162;2022-12-07T03:59:25;2;2;
73917;PMS5003;63639;52.280;5.162;2022-12-07T04:01:53;1;1;
73917;PMS5003;63639;52.280;5.162;2022-12-07T04:04:21;4;2;
73917;PMS5003;63639;52.280;5.162;2022-12-07T04:06:49;2;2;
73917;PMS5003;63639;52.280;5.162;2022-12-07T04:09:16;2;2;
73917;PMS5003;63639;52.280;5.162;2022-12-07T04:11:43;3;2;
73917;PMS5003;63639;52.280;5.162;2022-12-07T04:14:10;2;2;
73917;PMS5003;63639;52.280;5.162;2022-12-07T04:16:37;2;2;
73917;PMS5003;63639;52.280;5.162;2022-12-07T04:19:04;3;3;
73917;PMS5003;63639;52.280;5.162;2022-12-07T04:21:31;1;1;
73917;PMS5003;63639;52.280;5.162;2022-12-07T04:23:57;2;2;
73917;PMS5003;63639;52.280;5.162;2022-12-07T04:26:24;2;2;
73917;PMS5003;63639;52.280;5.162;2022-12-07T04:28:51;1;1;
73917;PMS5003;63639;52.280;5.162;2022-12-07T04:31:18;1;1;
73917;PMS5003;63639;52.280;5.162;2022-12-07T04:33:45;2;1;
73917;PMS5003;63639;52.280;5.162;2022-12-07T04:36:12;1;1;
73917;PMS5003;63639;52.280;5.162;2022-12-07T04:38:39;1;1;
73917;PMS5003;63639;52.280;5.162;2022-12-07T04:41:06;1;1;
73917;PMS5003;63639;52.280;5.162;2022-12-07T04:43:38;3;1;
73917;PMS5003;63639;52.280;5.162;2022-12-07T04:46:05;2;1;
73917;PMS5003;63639;52.280;5.162;2022-12-07T04:48:32;3;2;
73917;PMS5003;63639;52.280;5.162;2022-12-07T04:50:59;0;0;
73917;PMS5003;63639;52.280;5.162;2022-12-07T04:53:26;1;1;
73917;PMS5003;63639;52.280;5.162;2022-12-07T04:55:53;1;1;
73917;PMS5003;63639;52.280;5.162;2022-12-07T04:58:20;0;0;
73917;PMS5003;63639;52.280;5.162;2022-12-07T05:00:53;5;1;
73917;PMS5003;63639;52.280;5.162;2022-12-07T05:03:20;0;0;
73917;PMS5003;63639;52.280;5.162;2022-12-07T05:05:52;2;2;
73917;PMS5003;63639;52.280;5.162;2022-12-07T05:08:19;1;1;
73917;PMS5003;63639;52.280;5.162;2022-12-07T05:10:46;3;2;
73917;PMS5003;63639;52.280;5.162;2022-12-07T05:13:16;4;1;
73917;PMS5003;63639;52.280;5.162;2022-12-07T05:15:43;2;2;
73917;PMS5003;63639;52.280;5.162;2022-12-07T05:18:10;1;1;
73917;PMS5003;63639;52.280;5.162;2022-12-07T05:20:37;2;1;
73917;PMS5003;63639;52.280;5.162;2022-12-07T05:23:04;2;1;
73917;PMS5003;63639;52.280;5.162;2022-12-07T05:25:31;2;2;
73917;PMS5003;63639;52.280;5.162;2022-12-07T05:27:58;2;2;
73917;PMS5003;63639;52.280;5.162;2022-12-07T05:30:25;3;3;
73917;PMS5003;63639;52.280;5.162;2022-12-07T05:32:52;71;60;
73917;PMS5003;63639;52.280;5.162;2022-12-07T05:35:19;28;25;
73917;PMS5003;63639;52.280;5.162;2022-12-07T05:37:46;29;25;
73917;PMS5003;63639;52.280;5.162;2022-12-07T05:40:13;14;14;
73917;PMS5003;63639;52.280;5.162;2022-12-07T05:42:41;10;8;
73917;PMS5003;63639;52.280;5.162;2022-12-07T05:45:08;5;3;
73917;PMS5003;63639;52.280;5.162;2022-12-07T05:47:36;15;14;
73917;PMS5003;63639;52.280;5.162;2022-12-07T05:50:03;25;25;
73917;PMS5003;63639;52.280;5.162;2022-12-07T05:52:32;12;11;
73917;PMS5003;63639;52.280;5.162;2022-12-07T05:54:59;10;10;
73917;PMS5003;63639;52.280;5.162;2022-12-07T05:57:26;9;2;
73917;PMS5003;63639;52.280;5.162;2022-12-07T05:59:53;1;1;
73917;PMS5003;63639;52.280;5.162;2022-12-07T06:02:20;1;1;
73917;PMS5003;63639;52.280;5.162;2022-12-07T06:04:46;2;2;
73917;PMS5003;63639;52.280;5.162;2022-12-07T06:07:15;2;2;
73917;PMS5003;63639;52.280;5.162;2022-12-07T06:09:42;4;2;
73917;PMS5003;63639;52.280;5.162;2022-12-07T06:12:10;2;2;
73917;PMS5003;63639;52.280;5.162;2022-12-07T06:14:38;5;5;
73917;PMS5003;63639;52.280;5.162;2022-12-07T06:17:05;92;79;
73917;PMS5003;63639;52.280;5.162;2022-12-07T06:19:33;87;72;
73917;PMS5003;63639;52.280;5.162;2022-12-07T06:22:00;53;44;
73917;PMS5003;63639;52.280;5.162;2022-12-07T06:24:28;58;55;
73917;PMS5003;63639;52.280;5.162;2022-12-07T06:26:55;36;34;
73917;PMS5003;63639;52.280;5.162;2022-12-07T06:29:21;38;34;
73917;PMS5003;63639;52.280;5.162;2022-12-07T06:31:49;72;61;
73917;PMS5003;63639;52.280;5.162;2022-12-07T06:34:16;70;67;
73917;PMS5003;63639;52.280;5.162;2022-12-07T06:36:44;43;37;
73917;PMS5003;63639;52.280;5.162;2022-12-07T06:39:11;24;18;
73917;PMS5003;63639;52.280;5.162;2022-12-07T06:41:38;18;16;
73917;PMS5003;63639;52.280;5.162;2022-12-07T06:44:05;16;13;
73917;PMS5003;63639;52.280;5.162;2022-12-07T06:46:33;31;28;
73917;PMS5003;63639;52.280;5.162;2022-12-07T06:49:00;8;8;
73917;PMS5003;63639;52.280;5.162;2022-12-07T06:51:27;30;30;
73917;PMS5003;63639;52.280;5.162;2022-12-07T06:53:53;30;29;
73917;PMS5003;63639;52.280;5.162;2022-12-07T06:56:21;71;60;
73917;PMS5003;63639;52.280;5.162;2022-12-07T06:58:47;64;59;
73917;PMS5003;63639;52.280;5.162;2022-12-07T07:01:15;53;51;
73917;PMS5003;63639;52.280;5.162;2022-12-07T07:03:43;26;25;
73917;PMS5003;63639;52.280;5.162;2022-12-07T07:06:11;31;26;
73917;PMS5003;63639;52.280;5.162;2022-12-07T07:08:39;29;28;
73917;PMS5003;63639;52.280;5.162;2022-12-07T07:11:07;18;17;
73917;PMS5003;63639;52.280;5.162;2022-12-07T07:13:35;39;36;
73917;PMS5003;63639;52.280;5.162;2022-12-07T07:16:02;45;41;
73917;PMS5003;63639;52.280;5.162;2022-12-07T07:18:29;37;30;
73917;PMS5003;63639;52.280;5.162;2022-12-07T07:20:56;35;35;
73917;PMS5003;63639;52.280;5.162;2022-12-07T07:23:23;28;26;
73917;PMS5003;63639;52.280;5.162;2022-12-07T07:25:50;32;31;
73917;PMS5003;63639;52.280;5.162;2022-12-07T07:28:17;43;40;
73917;PMS5003;63639;52.280;5.162;2022-12-07T07:30:44;36;31;
73917;PMS5003;63639;52.280;5.162;2022-12-07T07:33:11;18;18;
73917;PMS5003;63639;52.280;5.162;2022-12-07T07:35:38;15;12;
73917;PMS5003;63639;52.280;5.162;2022-12-07T07:38:05;22;22;
73917;PMS5003;63639;52.280;5.162;2022-12-07T07:40:33;29;28;
73917;PMS5003;63639;52.280;5.162;2022-12-07T07:43:00;39;36;
73917;PMS5003;63639;52.280;5.162;2022-12-07T07:45:27;24;23;
73917;PMS5003;63639;52.280;5.162;2022-12-07T07:47:53;15;15;
73917;PMS5003;63639;52.280;5.162;2022-12-07T07:50:20;10;10;
73917;PMS5003;63639;52.280;5.162;2022-12-07T07:52:48;46;44;
73917;PMS5003;63639;52.280;5.162;2022-12-07T07:55:15;12;12;
73917;PMS5003;63639;52.280;5.162;2022-12-07T07:57:43;21;18;
73917;PMS5003;63639;52.280;5.162;2022-12-07T08:00:11;89;81;
73917;PMS5003;63639;52.280;5.162;2022-12-07T08:02:40;54;46;
73917;PMS5003;63639;52.280;5.162;2022-12-07T08:05:08;30;27;
73917;PMS5003;63639;52.280;5.162;2022-12-07T08:07:35;32;30;
73917;PMS5003;63639;52.280;5.162;2022-12-07T08:10:02;17;15;
73917;PMS5003;63639;52.280;5.162;2022-12-07T08:12:30;99;89;
73917;PMS5003;63639;52.280;5.162;2022-12-07T08:14:57;82;68;
73917;PMS5003;63639;52.280;5.162;2022-12-07T08:17:24;45;41;
73917;PMS5003;63639;52.280;5.162;2022-12-07T08:19:51;64;61;
73917;PMS5003;63639;52.280;5.162;2022-12-07T08:22:18;41;41;
73917;PMS5003;63639;52.280;5.162;2022-12-07T08:24:44;36;33;
73917;PMS5003;63639;52.280;5.162;2022-12-07T08:27:11;12;12;
73917;PMS5003;63639;52.280;5.162;2022-12-07T08:29:38;22;19;
73917;PMS5003;63639;52.280;5.162;2022-12-07T08:32:04;22;22;
73917;PMS5003;63639;52.280;5.162;2022-12-07T08:34:31;16;15;
73917;PMS5003;63639;52.280;5.162;2022-12-07T08:36:58;9;9;
73917;PMS5003;63639;52.280;5.162;2022-12-07T08:39:25;18;18;
73917;PMS5003;63639;52.280;5.162;2022-12-07T08:41:52;16;15;
73917;PMS5003;63639;52.280;5.162;2022-12-07T08:44:19;10;10;
73917;PMS5003;63639;52.280;5.162;2022-12-07T08:46:46;9;8;
73917;PMS5003;63639;52.280;5.162;2022-12-07T08:49:18;6;6;
73917;PMS5003;63639;52.280;5.162;2022-12-07T08:51:47;4;4;
73917;PMS5003;63639;52.280;5.162;2022-12-07T08:54:15;8;6;
73917;PMS5003;63639;52.280;5.162;2022-12-07T08:56:43;5;3;
73917;PMS5003;63639;52.280;5.162;2022-12-07T08:59:12;6;4;
73917;PMS5003;63639;52.280;5.162;2022-12-07T09:01:41;4;3;
73917;PMS5003;63639;52.280;5.162;2022-12-07T09:04:08;5;5;
73917;PMS5003;63639;52.280;5.162;2022-12-07T09:06:35;6;4;
73917;PMS5003;63639;52.280;5.162;2022-12-07T09:09:02;8;5;
73917;PMS5003;63639;52.280;5.162;2022-12-07T09:11:29;4;4;
73917;PMS5003;63639;52.280;5.162;2022-12-07T09:13:56;4;3;
73917;PMS5003;63639;52.280;5.162;2022-12-07T09:16:23;4;4;
73917;PMS5003;63639;52.280;5.162;2022-12-07T09:18:50;3;3;
73917;PMS5003;63639;52.280;5.162;2022-12-07T09:21:17;8;4;
73917;PMS5003;63639;52.280;5.162;2022-12-07T09:23:44;4;3;
73917;PMS5003;63639;52.280;5.162;2022-12-07T09:26:11;17;17;
73917;PMS5003;63639;52.280;5.162;2022-12-07T09:28:38;10;10;
73917;PMS5003;63639;52.280;5.162;2022-12-07T09:31:05;5;5;
73917;PMS5003;63639;52.280;5.162;2022-12-07T09:33:32;3;3;
73917;PMS5003;63639;52.280;5.162;2022-12-07T09:35:59;4;2;
73917;PMS5003;63639;52.280;5.162;2022-12-07T09:38:26;2;2;
73917;PMS5003;63639;52.280;5.162;2022-12-07T09:40:53;8;5;
73917;PMS5003;63639;52.280;5.162;2022-12-07T09:43:21;6;6;
73917;PMS5003;63639;52.280;5.162;2022-12-07T09:45:51;6;4;
73917;PMS5003;63639;52.280;5.162;2022-12-07T09:48:21;5;3;
73917;PMS5003;63639;52.280;5.162;2022-12-07T09:50:52;3;3;
73917;PMS5003;63639;52.280;5.162;2022-12-07T09:53:22;6;5;
73917;PMS5003;63639;52.280;5.162;2022-12-07T09:55:53;6;4;
73917;PMS5003;63639;52.280;5.162;2022-12-07T09:58:22;6;6;
73917;PMS5003;63639;52.280;5.162;2022-12-07T10:00:50;12;12;
73917;PMS5003;63639;52.280;5.162;2022-12-07T10:03:22;11;11;
73917;PMS5003;63639;52.280;5.162;2022-12-07T10:05:50;18;16;
73917;PMS5003;63639;52.280;5.162;2022-12-07T10:08:17;6;6;
73917;PMS5003;63639;52.280;5.162;2022-12-07T10:10:50;8;4;
73917;PMS5003;63639;52.280;5.162;2022-12-07T10:13:19;9;4;
73917;PMS5003;63639;52.280;5.162;2022-12-07T10:15:48;4;4;
73917;PMS5003;63639;52.280;5.162;2022-12-07T10:18:19;9;6;
73917;PMS5003;63639;52.280;5.162;2022-12-07T10:20:48;10;9;
73917;PMS5003;63639;52.280;5.162;2022-12-07T10:23:15;11;11;
73917;PMS5003;63639;52.280;5.162;2022-12-07T10:25:43;9;7;
73917;PMS5003;63639;52.280;5.162;2022-12-07T10:28:13;16;9;
73917;PMS5003;63639;52.280;5.162;2022-12-07T10:30:46;11;11;
73917;PMS5003;63639;52.280;5.162;2022-12-07T10:33:33;7;7;
73917;PMS5003;63639;52.280;5.162;2022-12-07T10:36:16;10;9;
73917;PMS5003;63639;52.280;5.162;2022-12-07T10:38:45;10;7;
73917;PMS5003;63639;52.280;5.162;2022-12-07T10:41:14;6;5;
73917;PMS5003;63639;52.280;5.162;2022-12-07T10:43:49;6;5;
73917;PMS5003;63639;52.280;5.162;2022-12-07T10:46:24;5;5;
73917;PMS5003;63639;52.280;5.162;2022-12-07T10:49:08;3;3;
73917;PMS5003;63639;52.280;5.162;2022-12-07T10:51:53;5;5;
73917;PMS5003;63639;52.280;5.162;2022-12-07T10:54:28;6;4;
73917;PMS5003;63639;52.280;5.162;2022-12-07T10:57:11;4;4;
73917;PMS5003;63639;52.280;5.162;2022-12-07T10:59:52;5;5;
73917;PMS5003;63639;52.280;5.162;2022-12-07T11:02:32;6;6;
73917;PMS5003;63639;52.280;5.162;2022-12-07T11:05:13;9;6;
73917;PMS5003;63639;52.280;5.162;2022-12-07T11:07:49;8;6;
73917;PMS5003;63639;52.280;5.162;2022-12-07T11:10:26;4;4;
73917;PMS5003;63639;52.280;5.162;2022-12-07T11:13:05;18;17;
73917;PMS5003;63639;52.280;5.162;2022-12-07T11:15:52;11;11;
73917;PMS5003;63639;52.280;5.162;2022-12-07T11:18:27;14;13;
73917;PMS5003;63639;52.280;5.162;2022-12-07T11:21:04;7;6;
73917;PMS5003;63639;52.280;5.162;2022-12-07T11:23:44;9;9;
73917;PMS5003;63639;52.280;5.162;2022-12-07T11:26:18;7;5;
73917;PMS5003;63639;52.280;5.162;2022-12-07T11:29:05;6;6;
73917;PMS5003;63639;52.280;5.162;2022-12-07T11:31:50;5;5;
73917;PMS5003;63639;52.280;5.162;2022-12-07T11:34:30;7;4;
73917;PMS5003;63639;52.280;5.162;2022-12-07T11:37:06;5;5;
73917;PMS5003;63639;52.280;5.162;2022-12-07T11:39:39;5;5;
73917;PMS5003;63639;52.280;5.162;2022-12-07T11:42:12;6;5;
73917;PMS5003;63639;52.280;5.162;2022-12-07T11:44:45;7;6;
73917;PMS5003;63639;52.280;5.162;2022-12-07T11:47:20;4;4;
73917;PMS5003;63639;52.280;5.162;2022-12-07T11:49:54;5;5;
73917;PMS5003;63639;52.280;5.162;2022-12-07T11:52:30;7;5;
73917;PMS5003;63639;52.280;5.162;2022-12-07T11:55:15;7;5;
73917;PMS5003;63639;52.280;5.162;2022-12-07T11:57:50;4;4;
73917;PMS5003;63639;52.280;5.162;2022-12-07T12:00:24;3;3;
73917;PMS5003;63639;52.280;5.162;2022-12-07T12:02:52;3;3;
73917;PMS5003;63639;52.280;5.162;2022-12-07T12:05:26;4;4;
73917;PMS5003;63639;52.280;5.162;2022-12-07T12:07:54;5;3;
73917;PMS5003;63639;52.280;5.162;2022-12-07T12:10:30;3;3;
73917;PMS5003;63639;52.280;5.162;2022-12-07T12:13:12;4;4;
73917;PMS5003;63639;52.280;5.162;2022-12-07T12:15:55;4;4;
73917;PMS5003;63639;52.280;5.162;2022-12-07T12:18:45;3;3;
73917;PMS5003;63639;52.280;5.162;2022-12-07T12:21:27;3;3;
73917;PMS5003;63639;52.280;5.162;2022-12-07T12:23:56;1;1;
73917;PMS5003;63639;52.280;5.162;2022-12-07T12:26:27;2;2;
73917;PMS5003;63639;52.280;5.162;2022-12-07T12:28:57;1;1;
73917;PMS5003;63639;52.280;5.162;2022-12-07T12:31:30;0;0;
73917;PMS5003;63639;52.280;5.162;2022-12-07T12:34:02;1;0;
73917;PMS5003;63639;52.280;5.162;2022-12-07T12:36:43;1;1;
73917;PMS5003;63639;52.280;5.162;2022-12-07T12:39:12;0;0;
73917;PMS5003;63639;52.280;5.162;2022-12-07T12:42:00;4;3;
73917;PMS5003;63639;52.280;5.162;2022-12-07T12:45:30;3;2;
73917;PMS5003;63639;52.280;5.162;2022-12-07T12:47:58;4;4;
73917;PMS5003;63639;52.280;5.162;2022-12-07T12:50:26;13;12;
73917;PMS5003;63639;52.280;5.162;2022-12-07T12:52:57;2;2;
73917;PMS5003;63639;52.280;5.162;2022-12-07T12:55:43;6;6;
73917;PMS5003;63639;52.280;5.162;2022-12-07T12:58:32;6;5;
73917;PMS5003;63639;52.280;5.162;2022-12-07T13:02:09;13;12;
73917;PMS5003;63639;52.280;5.162;2022-12-07T13:04:49;29;27;
73917;PMS5003;63639;52.280;5.162;2022-12-07T13:07:53;43;33;
73917;PMS5003;63639;52.280;5.162;2022-12-07T13:10:28;16;15;
73917;PMS5003;63639;52.280;5.162;2022-12-07T13:13:01;30;21;
73917;PMS5003;63639;52.280;5.162;2022-12-07T13:15:32;21;21;
73917;PMS5003;63639;52.280;5.162;2022-12-07T13:18:02;26;23;
73917;PMS5003;63639;52.280;5.162;2022-12-07T13:20:47;41;37;
73917;PMS5003;63639;52.280;5.162;2022-12-07T13:23:18;102;85;
73917;PMS5003;63639;52.280;5.162;2022-12-07T13:25:51;8;7;
73917;PMS5003;63639;52.280;5.162;2022-12-07T13:28:21;10;10;
73917;PMS5003;63639;52.280;5.162;2022-12-07T13:30:54;17;16;
73917;PMS5003;63639;52.280;5.162;2022-12-07T13:33:30;4;3;
73917;PMS5003;63639;52.280;5.162;2022-12-07T13:36:00;3;1;
73917;PMS5003;63639;52.280;5.162;2022-12-07T13:38:28;4;4;
73917;PMS5003;63639;52.280;5.162;2022-12-07T13:41:00;9;5;
73917;PMS5003;63639;52.280;5.162;2022-12-07T13:43:27;7;7;
73917;PMS5003;63639;52.280;5.162;2022-12-07T13:45:56;6;6;
73917;PMS5003;63639;52.280;5.162;2022-12-07T13:48:24;7;7;
73917;PMS5003;63639;52.280;5.162;2022-12-07T13:50:57;3;3;
73917;PMS5003;63639;52.280;5.162;2022-12-07T13:53:25;4;4;
73917;PMS5003;63639;52.280;5.162;2022-12-07T13:55:52;6;4;
73917;PMS5003;63639;52.280;5.162;2022-12-07T13:58:19;6;5;
73917;PMS5003;63639;52.280;5.162;2022-12-07T14:00:47;6;6;
73917;PMS5003;63639;52.280;5.162;2022-12-07T14:03:26;8;8;
73917;PMS5003;63639;52.280;5.162;2022-12-07T14:06:05;5;5;
73917;PMS5003;63639;52.280;5.162;2022-12-07T14:08:39;3;2;
73917;PMS5003;63639;52.280;5.162;2022-12-07T14:11:05;3;3;
73917;PMS5003;63639;52.280;5.162;2022-12-07T14:13:39;6;4;
73917;PMS5003;63639;52.280;5.162;2022-12-07T14:16:17;2;2;
73917;PMS5003;63639;52.280;5.162;2022-12-07T14:18:50;4;4;
73917;PMS5003;63639;52.280;5.162;2022-12-07T14:21:18;2;2;
73917;PMS5003;63639;52.280;5.162;2022-12-07T14:23:47;4;2;
73917;PMS5003;63639;52.280;5.162;2022-12-07T14:26:33;2;1;
73917;PMS5003;63639;52.280;5.162;2022-12-07T14:29:18;2;2;
73917;PMS5003;63639;52.280;5.162;2022-12-07T14:31:46;19;19;
73917;PMS5003;63639;52.280;5.162;2022-12-07T14:34:13;38;35;
73917;PMS5003;63639;52.280;5.162;2022-12-07T14:36:40;2;1;
73917;PMS5003;63639;52.280;5.162;2022-12-07T14:39:07;1;1;
73917;PMS5003;63639;52.280;5.162;2022-12-07T14:41:34;1;1;
73917;PMS5003;63639;52.280;5.162;2022-12-07T14:44:01;1;1;
73917;PMS5003;63639;52.280;5.162;2022-12-07T14:46:34;1;1;
73917;PMS5003;63639;52.280;5.162;2022-12-07T14:49:01;6;6;
73917;PMS5003;63639;52.280;5.162;2022-12-07T14:51:28;9;9;
73917;PMS5003;63639;52.280;5.162;2022-12-07T14:53:55;10;9;
73917;PMS5003;63639;52.280;5.162;2022-12-07T14:56:22;11;11;
73917;PMS5003;63639;52.280;5.162;2022-12-07T14:58:49;3;3;
73917;PMS5003;63639;52.280;5.162;2022-12-07T15:01:16;3;3;
73917;PMS5003;63639;52.280;5.162;2022-12-07T15:03:42;4;2;
73917;PMS5003;63639;52.280;5.162;2022-12-07T15:06:10;2;2;
73917;PMS5003;63639;52.280;5.162;2022-12-07T15:08:40;5;4;
73917;PMS5003;63639;52.280;5.162;2022-12-07T15:11:09;2;2;
73917;PMS5003;63639;52.280;5.162;2022-12-07T15:13:37;3;3;
73917;PMS5003;63639;52.280;5.162;2022-12-07T15:16:04;3;3;
73917;PMS5003;63639;52.280;5.162;2022-12-07T15:18:35;4;4;
73917;PMS5003;63639;52.280;5.162;2022-12-07T15:21:03;9;8;
73917;PMS5003;63639;52.280;5.162;2022-12-07T15:23:35;11;10;
73917;PMS5003;63639;52.280;5.162;2022-12-07T15:26:02;8;6;
73917;PMS5003;63639;52.280;5.162;2022-12-07T15:28:29;36;34;
73917;PMS5003;63639;52.280;5.162;2022-12-07T15:30:56;43;32;
73917;PMS5003;63639;52.280;5.162;2022-12-07T15:33:23;22;19;
73917;PMS5003;63639;52.280;5.162;2022-12-07T15:35:50;41;38;
73917;PMS5003;63639;52.280;5.162;2022-12-07T15:38:18;12;10;
73917;PMS5003;63639;52.280;5.162;2022-12-07T15:40:46;23;18;
73917;PMS5003;63639;52.280;5.162;2022-12-07T15:43:13;10;10;
73917;PMS5003;63639;52.280;5.162;2022-12-07T15:45:39;6;6;
73917;PMS5003;63639;52.280;5.162;2022-12-07T15:48:06;30;27;
73917;PMS5003;63639;52.280;5.162;2022-12-07T15:50:32;18;18;
73917;PMS5003;63639;52.280;5.162;2022-12-07T15:52:59;25;21;
73917;PMS5003;63639;52.280;5.162;2022-12-07T15:55:26;15;15;
73917;PMS5003;63639;52.280;5.162;2022-12-07T15:57:52;16;16;
73917;PMS5003;63639;52.280;5.162;2022-12-07T16:00:20;13;12;
73917;PMS5003;63639;52.280;5.162;2022-12-07T16:02:47;18;17;
73917;PMS5003;63639;52.280;5.162;2022-12-07T16:05:14;20;19;
73917;PMS5003;63639;52.280;5.162;2022-12-07T16:07:40;10;10;
73917;PMS5003;63639;52.280;5.162;2022-12-07T16:10:08;16;15;
73917;PMS5003;63639;52.280;5.162;2022-12-07T16:12:35;12;12;
73917;PMS5003;63639;52.280;5.162;2022-12-07T16:15:02;20;20;
73917;PMS5003;63639;52.280;5.162;2022-12-07T16:17:30;5;5;
73917;PMS5003;63639;52.280;5.162;2022-12-07T16:19:56;19;17;
73917;PMS5003;63639;52.280;5.162;2022-12-07T16:22:23;23;23;
73917;PMS5003;63639;52.280;5.162;2022-12-07T16:24:50;9;9;
73917;PMS5003;63639;52.280;5.162;2022-12-07T16:27:17;12;10;
73917;PMS5003;63639;52.280;5.162;2022-12-07T16:29:44;17;13;
73917;PMS5003;63639;52.280;5.162;2022-12-07T16:32:11;15;11;
73917;PMS5003;63639;52.280;5.162;2022-12-07T16:34:39;15;13;
73917;PMS5003;63639;52.280;5.162;2022-12-07T16:37:05;20;19;
73917;PMS5003;63639;52.280;5.162;2022-12-07T16:39:32;24;21;
73917;PMS5003;63639;52.280;5.162;2022-12-07T16:41:59;13;12;
73917;PMS5003;63639;52.280;5.162;2022-12-07T16:44:26;18;17;
73917;PMS5003;63639;52.280;5.162;2022-12-07T16:46:53;13;13;
73917;PMS5003;63639;52.280;5.162;2022-12-07T16:49:20;16;13;
73917;PMS5003;63639;52.280;5.162;2022-12-07T16:51:48;13;13;
73917;PMS5003;63639;52.280;5.162;2022-12-07T16:54:16;21;20;
73917;PMS5003;63639;52.280;5.162;2022-12-07T16:56:43;26;20;
73917;PMS5003;63639;52.280;5.162;2022-12-07T16:59:09;42;39;
73917;PMS5003;63639;52.280;5.162;2022-12-07T17:01:36;47;44;